Time;durP1;ratioP1;P1;durP2;ratioP2;P2;SDS_P1;SDS_P2;PMS_P1;PMS_P2;Temp;Humidity;BMP_temperature;BMP_pressure;BME280_temperature;BME280_humidity;BME280_pressure;Samples;Min_cycle;Max_cycle;Signal;HPM_P1;HPM_P2
2021/05/01 00:00:07;;;;;;;14.77;13.30;;;8.60;99.90;;;;;;4988770;28;20629;-52
2021/05/01 00:02:38;;;;;;;14.20;12.70;;;8.60;99.90;;;;;;4988462;28;20701;-53
2021/05/01 00:05:08;;;;;;;14.27;12.80;;;8.70;99.90;;;;;;4988495;28;20300;-55
2021/05/01 00:07:35;;;;;;;14.67;13.27;;;8.70;99.90;;;;;;4988706;28;20596;-54
2021/05/01 00:10:03;;;;;;;14.80;13.43;;;8.70;99.90;;;;;;4988809;28;20261;-53
2021/05/01 00:12:31;;;;;;;13.80;12.03;;;8.70;99.90;;;;;;4987738;28;20277;-54
2021/05/01 00:15:02;;;;;;;14.27;12.87;;;8.80;99.90;;;;;;4983036;28;20243;-54
2021/05/01 00:17:29;;;;;;;14.33;13.03;;;8.80;99.90;;;;;;5001952;28;20256;-56
2021/05/01 00:19:57;;;;;;;14.97;13.57;;;8.80;99.90;;;;;;4999021;28;20241;-53
2021/05/01 00:22:24;;;;;;;13.87;12.63;;;8.80;99.90;;;;;;4986122;28;20431;-52
2021/05/01 00:24:51;;;;;;;13.83;12.53;;;8.80;99.90;;;;;;4969299;28;20322;-52
2021/05/01 00:27:18;;;;;;;15.17;13.67;;;8.90;99.90;;;;;;4969127;28;23058;-52
2021/05/01 00:29:47;;;;;;;13.87;12.67;;;8.80;99.90;;;;;;4983543;28;20253;-54
2021/05/01 00:32:14;;;;;;;15.23;13.63;;;8.70;99.90;;;;;;4968967;28;20244;-53
2021/05/01 00:34:41;;;;;;;15.43;13.87;;;8.80;99.90;;;;;;4968620;28;20234;-53
2021/05/01 00:37:08;;;;;;;14.20;12.80;;;8.70;99.90;;;;;;4968882;28;20239;-54
2021/05/01 00:39:37;;;;;;;14.60;13.20;;;8.90;99.90;;;;;;4983622;28;20289;-52
2021/05/01 00:42:05;;;;;;;13.73;12.37;;;8.80;99.90;;;;;;4969090;28;20237;-53
2021/05/01 00:44:32;;;;;;;15.07;13.13;;;8.90;99.90;;;;;;4968593;28;20302;-53
2021/05/01 00:47:00;;;;;;;15.30;13.73;;;8.80;99.90;;;;;;4973906;28;20231;-53
2021/05/01 00:49:28;;;;;;;14.30;13.00;;;8.80;99.90;;;;;;4988561;28;20234;-53
2021/05/01 00:51:55;;;;;;;15.70;14.30;;;8.70;99.90;;;;;;4988308;28;20264;-53
2021/05/01 00:54:23;;;;;;;16.20;14.57;;;8.60;99.90;;;;;;4988141;28;20274;-53
2021/05/01 00:56:50;;;;;;;16.87;15.27;;;8.60;99.90;;;;;;4987325;28;20651;-53
2021/05/01 00:59:18;;;;;;;15.70;14.20;;;8.50;99.90;;;;;;4987977;28;20238;-54
2021/05/01 01:01:49;;;;;;;15.10;13.70;;;8.50;99.90;;;;;;4987659;28;20718;-55
2021/05/01 01:04:18;;;;;;;16.83;13.30;;;8.60;99.90;;;;;;4988271;28;20701;-53
2021/05/01 01:06:46;;;;;;;15.83;14.23;;;8.60;99.90;;;;;;4987461;28;20858;-54
2021/05/01 01:09:14;;;;;;;16.20;13.50;;;8.70;99.90;;;;;;4986754;28;20249;-53
2021/05/01 01:11:42;;;;;;;15.17;13.73;;;8.60;99.90;;;;;;4986506;28;20235;-54
2021/05/01 01:14:12;;;;;;;15.07;13.67;;;8.70;99.90;;;;;;4978247;28;20246;-53
2021/05/01 01:16:44;;;;;;;15.30;13.90;;;8.70;99.90;;;;;;4996924;28;20531;-52
2021/05/01 01:19:12;;;;;;;16.53;14.83;;;8.60;99.90;;;;;;4993549;28;20288;-53
2021/05/01 01:21:44;;;;;;;15.07;13.53;;;8.70;99.90;;;;;;5007413;28;20234;-52
2021/05/01 01:24:13;;;;;;;14.37;12.97;;;8.70;99.90;;;;;;4993447;28;20242;-54
2021/05/01 01:26:42;;;;;;;14.57;13.17;;;8.80;99.90;;;;;;4992002;28;20252;-52
2021/05/01 01:29:14;;;;;;;15.70;14.10;;;8.80;99.90;;;;;;4991975;28;20712;-53
2021/05/01 01:31:42;;;;;;;15.07;13.57;;;8.70;99.90;;;;;;4991518;28;20249;-53
2021/05/01 01:34:10;;;;;;;16.00;14.40;;;8.50;99.90;;;;;;4988548;28;20238;-53
2021/05/01 01:36:38;;;;;;;15.97;14.47;;;8.40;99.90;;;;;;4991367;28;20309;-53
2021/05/01 01:39:05;;;;;;;15.17;13.70;;;8.40;99.90;;;;;;4991235;28;20329;-52
2021/05/01 01:41:34;;;;;;;16.40;14.70;;;8.40;99.90;;;;;;4990915;28;20846;-54
2021/05/01 01:44:03;;;;;;;16.20;14.60;;;8.50;99.90;;;;;;4991584;28;20512;-54
2021/05/01 01:46:32;;;;;;;15.67;14.27;;;8.40;99.90;;;;;;4978150;28;20255;-53
2021/05/01 01:49:00;;;;;;;15.00;13.50;;;8.40;99.90;;;;;;4972052;28;20262;-53
2021/05/01 01:51:27;;;;;;;16.00;14.47;;;8.50;99.90;;;;;;4971845;28;20251;-53
2021/05/01 01:53:55;;;;;;;15.53;14.03;;;8.50;99.90;;;;;;4972185;28;20241;-53
2021/05/01 01:56:24;;;;;;;16.90;15.30;;;8.50;99.90;;;;;;4971619;28;20742;-52
2021/05/01 01:58:52;;;;;;;15.77;14.27;;;8.50;99.90;;;;;;4970694;28;20326;-52
2021/05/01 02:01:20;;;;;;;14.87;13.57;;;8.50;99.90;;;;;;4971550;28;20350;-54
2021/05/01 02:03:47;;;;;;;16.63;15.13;;;8.50;99.90;;;;;;4971602;28;20238;-52
2021/05/01 02:06:16;;;;;;;15.77;14.17;;;8.50;99.90;;;;;;4971638;28;20248;-53
2021/05/01 02:08:43;;;;;;;16.57;14.97;;;8.50;99.90;;;;;;4982244;28;20307;-53
2021/05/01 02:11:11;;;;;;;15.30;13.90;;;8.60;99.90;;;;;;5003049;28;20328;-54
2021/05/01 02:13:38;;;;;;;16.23;14.73;;;8.60;99.90;;;;;;4988813;28;20227;-54
2021/05/01 02:16:07;;;;;;;16.50;14.83;;;8.50;99.90;;;;;;4988936;28;20237;-53
2021/05/01 02:18:34;;;;;;;16.50;14.90;;;8.50;99.90;;;;;;4994535;28;20288;-53
2021/05/01 02:21:01;;;;;;;16.67;14.97;;;8.70;99.90;;;;;;5010023;28;20238;-52
2021/05/01 02:23:29;;;;;;;16.70;15.10;;;8.70;99.90;;;;;;5010493;28;20265;-53
2021/05/01 02:25:56;;;;;;;17.73;16.07;;;8.70;99.90;;;;;;5010702;28;20316;-53
2021/05/01 02:28:24;;;;;;;16.87;15.17;;;8.70;99.90;;;;;;5010396;28;20767;-53
2021/05/01 02:30:51;;;;;;;19.20;17.23;;;8.60;99.90;;;;;;5010217;28;20248;-52
2021/05/01 02:33:19;;;;;;;17.83;16.23;;;8.50;99.90;;;;;;5010062;28;20238;-54
2021/05/01 02:35:47;;;;;;;18.50;16.60;;;8.50;99.90;;;;;;5009471;28;20238;-53
2021/05/01 02:38:14;;;;;;;17.87;15.97;;;8.50;99.90;;;;;;4994453;28;20702;-54
2021/05/01 02:40:41;;;;;;;17.87;16.13;;;8.40;99.90;;;;;;4990425;28;20729;-54
2021/05/01 02:43:12;;;;;;;19.30;17.50;;;8.40;99.90;;;;;;4990036;28;20272;-53
2021/05/01 02:45:40;;;;;;;18.27;16.37;;;8.40;99.90;;;;;;5003077;28;20694;-52
2021/05/01 02:48:10;;;;;;;18.43;16.67;;;8.30;99.90;;;;;;4990762;28;20333;-54
2021/05/01 02:50:39;;;;;;;19.97;17.97;;;8.30;99.90;;;;;;4990253;28;20245;-53
2021/05/01 02:53:06;;;;;;;17.73;16.03;;;8.30;99.90;;;;;;4990057;28;20239;-52
2021/05/01 02:55:34;;;;;;;18.47;16.63;;;8.30;99.90;;;;;;4989408;28;20579;-52
2021/05/01 02:58:01;;;;;;;19.97;18.07;;;8.30;99.90;;;;;;4990716;28;20252;-54
2021/05/01 03:00:29;;;;;;;20.37;17.30;;;8.30;99.90;;;;;;4990142;28;20763;-52
2021/05/01 03:02:56;;;;;;;19.03;17.23;;;8.30;99.90;;;;;;4990148;28;20245;-53
2021/05/01 03:05:24;;;;;;;18.63;16.80;;;8.30;99.90;;;;;;4989897;28;20240;-52
2021/05/01 03:07:53;;;;;;;18.53;16.63;;;8.30;99.90;;;;;;4989865;28;20248;-52
2021/05/01 03:10:23;;;;;;;18.13;16.43;;;8.30;99.90;;;;;;4989747;28;20237;-54
2021/05/01 03:12:51;;;;;;;17.93;16.23;;;8.20;99.90;;;;;;5000162;28;20704;-53
2021/05/01 03:15:19;;;;;;;18.10;16.30;;;8.20;99.90;;;;;;5000921;28;20458;-54
2021/05/01 03:17:47;;;;;;;18.23;16.40;;;8.20;99.90;;;;;;5009643;28;20237;-52
2021/05/01 03:20:17;;;;;;;18.77;16.87;;;8.20;99.90;;;;;;4989382;28;20242;-53
2021/05/01 03:22:45;;;;;;;18.43;16.73;;;8.20;99.90;;;;;;4969812;28;20272;-54
2021/05/01 03:25:17;;;;;;;17.90;16.20;;;8.20;99.90;;;;;;4970133;28;20246;-54
2021/05/01 03:27:46;;;;;;;17.30;15.50;;;8.20;99.90;;;;;;4970235;28;20309;-55
2021/05/01 03:30:17;;;;;;;20.73;16.67;;;8.20;99.90;;;;;;4969750;28;20246;-54
2021/05/01 03:32:45;;;;;;;17.40;15.70;;;8.20;99.90;;;;;;4969825;28;20243;-54
2021/05/01 03:35:14;;;;;;;18.23;16.33;;;8.20;99.90;;;;;;4971562;28;20730;-54
2021/05/01 03:37:42;;;;;;;17.37;15.63;;;8.20;99.90;;;;;;4970198;28;20234;-53
2021/05/01 03:40:13;;;;;;;17.10;15.30;;;8.20;99.90;;;;;;4972441;28;20238;-53
2021/05/01 03:42:40;;;;;;;16.37;14.77;;;8.10;99.90;;;;;;4969768;28;20234;-53
2021/05/01 03:45:11;;;;;;;16.87;15.27;;;8.20;99.90;;;;;;4969443;28;20234;-53
2021/05/01 03:47:38;;;;;;;16.97;15.27;;;8.20;99.90;;;;;;4968901;28;20694;-53
2021/05/01 03:50:08;;;;;;;16.03;14.43;;;8.20;99.90;;;;;;4969633;28;20733;-53
2021/05/01 03:52:38;;;;;;;16.17;14.57;;;8.20;99.90;;;;;;4969419;28;20325;-53
2021/05/01 03:55:08;;;;;;;16.10;14.40;;;8.20;99.90;;;;;;4969377;28;20669;-53
2021/05/01 03:57:50;;;;;;;17.03;14.50;;;8.20;99.90;;;;;;4969837;28;20246;-52
2021/05/01 04:00:19;;;;;;;15.47;13.90;;;8.20;99.90;;;;;;4968768;28;20766;-53
2021/05/01 04:02:47;;;;;;;16.30;14.67;;;8.20;99.90;;;;;;4969211;28;20644;-53
2021/05/01 04:05:19;;;;;;;14.40;12.90;;;8.20;99.90;;;;;;4969368;28;20239;-52
2021/05/01 04:07:48;;;;;;;15.40;13.87;;;8.20;99.90;;;;;;4979987;28;20241;-52
2021/05/01 04:10:16;;;;;;;14.13;12.87;;;8.20;99.90;;;;;;4989103;28;20243;-52
2021/05/01 04:12:43;;;;;;;14.40;13.00;;;8.20;99.90;;;;;;4999603;28;20229;-53
2021/05/01 04:15:12;;;;;;;14.80;13.40;;;8.20;99.90;;;;;;4994202;28;20242;-52
2021/05/01 04:17:39;;;;;;;13.30;12.10;;;8.20;99.90;;;;;;4988687;28;20744;-53
2021/05/01 04:20:09;;;;;;;14.37;12.73;;;8.20;99.90;;;;;;4986925;28;20237;-53
2021/05/01 04:22:36;;;;;;;13.87;12.53;;;8.20;99.90;;;;;;4988077;28;20718;-53
2021/05/01 04:25:05;;;;;;;13.97;12.53;;;8.20;99.90;;;;;;4979784;28;20230;-52
2021/05/01 04:27:33;;;;;;;14.27;12.57;;;8.20;99.90;;;;;;4983802;28;20238;-53
2021/05/01 04:30:00;;;;;;;14.03;12.57;;;8.20;99.90;;;;;;4988051;28;20241;-52
2021/05/01 04:32:29;;;;;;;14.20;12.70;;;8.10;99.90;;;;;;4988697;28;20562;-53
2021/05/01 04:34:56;;;;;;;15.03;12.53;;;8.20;99.90;;;;;;4988331;28;20230;-53
2021/05/01 04:37:23;;;;;;;13.73;12.33;;;8.20;99.90;;;;;;4982536;28;20304;-53
2021/05/01 04:39:51;;;;;;;14.23;12.73;;;8.20;99.90;;;;;;4968516;28;20310;-53
2021/05/01 04:42:18;;;;;;;14.27;12.70;;;8.20;99.90;;;;;;4968449;28;20317;-52
2021/05/01 04:44:46;;;;;;;13.43;12.13;;;8.20;99.90;;;;;;4968275;28;20300;-53
2021/05/01 04:47:15;;;;;;;13.77;12.47;;;8.20;99.90;;;;;;4968324;28;20239;-52
2021/05/01 04:49:45;;;;;;;14.23;12.77;;;8.10;99.90;;;;;;4968430;28;20325;-52
2021/05/01 04:52:12;;;;;;;13.33;12.03;;;8.10;99.90;;;;;;4967886;28;20243;-52
2021/05/01 04:54:40;;;;;;;13.10;11.70;;;8.10;99.90;;;;;;4972268;28;20237;-53
2021/05/01 04:57:07;;;;;;;12.07;10.90;;;8.20;99.90;;;;;;4987853;28;20685;-52
2021/05/01 04:59:36;;;;;;;12.83;11.63;;;8.20;99.90;;;;;;4987703;28;20601;-52
2021/05/01 05:02:06;;;;;;;12.63;11.37;;;8.20;99.90;;;;;;4987626;28;20230;-52
2021/05/01 05:04:33;;;;;;;13.50;11.60;;;8.20;99.90;;;;;;4986607;28;20287;-53
2021/05/01 05:07:01;;;;;;;12.83;11.53;;;8.20;99.90;;;;;;4989708;28;20238;-52
2021/05/01 05:09:29;;;;;;;12.93;11.73;;;8.20;99.90;;;;;;4999266;28;20238;-53
2021/05/01 05:11:56;;;;;;;12.23;11.03;;;8.20;99.90;;;;;;5006929;28;20556;-52
2021/05/01 05:14:24;;;;;;;12.37;11.27;;;8.20;99.90;;;;;;5007603;28;20243;-52
2021/05/01 05:16:51;;;;;;;12.93;11.73;;;8.20;99.90;;;;;;5007167;28;20245;-53
2021/05/01 05:19:18;;;;;;;11.83;10.73;;;8.20;99.90;;;;;;5007505;28;20237;-53
2021/05/01 05:21:46;;;;;;;12.30;11.10;;;8.20;99.90;;;;;;4992143;28;20245;-52
2021/05/01 05:24:14;;;;;;;12.17;10.97;;;8.20;99.90;;;;;;4987825;28;20237;-52
2021/05/01 05:26:41;;;;;;;11.53;10.43;;;8.20;99.90;;;;;;4987996;28;20655;-53
2021/05/01 05:29:10;;;;;;;11.50;10.37;;;8.30;99.90;;;;;;4987976;28;20713;-54
2021/05/01 05:31:37;;;;;;;12.60;11.30;;;8.20;99.90;;;;;;4987420;28;20293;-54
2021/05/01 05:34:05;;;;;;;12.50;11.30;;;8.20;99.90;;;;;;4987423;28;20238;-54
2021/05/01 05:36:32;;;;;;;11.80;10.63;;;8.20;99.90;;;;;;4987627;28;20644;-54
2021/05/01 05:38:59;;;;;;;11.87;10.67;;;8.20;99.90;;;;;;4987703;28;20237;-53
2021/05/01 05:41:29;;;;;;;12.83;10.33;;;8.30;99.90;;;;;;4985120;28;20764;-52
2021/05/01 05:43:56;;;;;;;11.83;10.63;;;8.30;99.90;;;;;;4987510;28;20250;-53
2021/05/01 05:46:23;;;;;;;12.00;10.83;;;8.30;99.90;;;;;;4986510;28;20288;-54
2021/05/01 05:48:51;;;;;;;11.53;10.43;;;8.40;99.90;;;;;;4988301;28;20252;-54
2021/05/01 05:51:18;;;;;;;11.50;10.30;;;8.30;99.90;;;;;;4987486;28;20242;-53
2021/05/01 05:53:47;;;;;;;10.93;9.83;;;8.30;99.90;;;;;;4987350;28;20227;-53
2021/05/01 05:56:15;;;;;;;11.77;10.53;;;8.40;99.90;;;;;;4987477;28;20767;-52
2021/05/01 05:58:43;;;;;;;11.40;10.27;;;8.40;99.90;;;;;;4987366;28;20745;-52
2021/05/01 06:01:11;;;;;;;11.63;10.53;;;8.40;99.90;;;;;;4980977;28;20242;-52
2021/05/01 06:03:45;;;;;;;10.77;9.77;;;8.40;99.90;;;;;;4980261;28;20284;-54
2021/05/01 06:06:15;;;;;;;11.70;10.60;;;8.40;99.90;;;;;;4997386;28;20295;-52
2021/05/01 06:08:45;;;;;;;11.80;10.60;;;8.40;99.90;;;;;;4999988;28;20242;-52
2021/05/01 06:11:13;;;;;;;11.77;10.20;;;8.40;99.90;;;;;;4991015;28;20245;-52
2021/05/01 06:13:41;;;;;;;11.77;10.10;;;8.40;99.90;;;;;;4990078;28;20234;-54
2021/05/01 06:16:09;;;;;;;11.40;10.20;;;8.40;99.90;;;;;;4990199;28;20250;-53
2021/05/01 06:18:39;;;;;;;11.90;10.63;;;8.40;99.90;;;;;;4991179;28;20229;-52
2021/05/01 06:21:09;;;;;;;12.10;10.90;;;8.40;99.90;;;;;;4989640;28;20288;-53
2021/05/01 06:23:39;;;;;;;11.33;10.03;;;8.50;99.90;;;;;;4989241;28;20757;-53
2021/05/01 06:26:07;;;;;;;11.57;10.47;;;8.50;99.90;;;;;;4990226;28;20241;-52
2021/05/01 06:28:35;;;;;;;13.30;11.07;;;8.50;99.90;;;;;;4990347;28;20306;-53
2021/05/01 06:31:05;;;;;;;11.70;10.53;;;8.60;99.90;;;;;;4987698;28;20605;-52
2021/05/01 06:33:37;;;;;;;11.90;10.73;;;8.60;99.90;;;;;;4990711;28;20270;-53
2021/05/01 06:36:06;;;;;;;12.00;10.73;;;8.70;99.90;;;;;;4990527;28;20277;-52
2021/05/01 06:38:34;;;;;;;11.97;10.57;;;8.70;99.90;;;;;;4986901;28;20248;-52
2021/05/01 06:41:07;;;;;;;11.83;10.37;;;8.70;99.90;;;;;;4990390;28;20241;-54
2021/05/01 06:44:01;;;;;;;11.93;10.83;;;8.70;99.90;;;;;;4989851;28;20298;-53
2021/05/01 06:46:31;;;;;;;12.43;11.23;;;8.70;99.90;;;;;;4986716;28;20235;-52
2021/05/01 06:49:04;;;;;;;12.00;10.80;;;8.70;99.90;;;;;;4971370;28;20254;-53
2021/05/01 06:51:37;;;;;;;12.53;11.17;;;8.80;99.90;;;;;;4970515;28;20294;-53
2021/05/01 06:54:09;;;;;;;11.97;10.77;;;8.80;99.90;;;;;;4970655;28;20257;-53
2021/05/01 06:56:40;;;;;;;11.67;10.57;;;8.80;99.90;;;;;;4970522;28;20286;-54
2021/05/01 06:59:09;;;;;;;12.40;11.10;;;8.80;99.90;;;;;;4979629;28;20242;-53
2021/05/01 07:01:40;;;;;;;12.37;11.07;;;8.90;99.90;;;;;;4982741;28;20281;-53
2021/05/01 07:04:12;;;;;;;13.80;12.00;;;9.00;99.90;;;;;;4993083;28;20236;-58
2021/05/01 07:06:40;;;;;;;13.53;11.63;;;9.10;99.90;;;;;;4968409;28;20713;-56
2021/05/01 07:09:07;;;;;;;12.50;11.30;;;9.20;99.90;;;;;;4956865;28;20246;-53
2021/05/01 07:11:35;;;;;;;12.17;10.93;;;9.20;99.90;;;;;;4947334;28;20241;-53
2021/05/01 07:14:03;;;;;;;12.37;11.00;;;9.20;99.90;;;;;;4947233;28;20241;-54
2021/05/01 07:16:31;;;;;;;12.27;11.03;;;9.30;99.90;;;;;;4942136;28;20629;-56
2021/05/01 07:19:00;;;;;;;12.70;11.33;;;9.30;99.90;;;;;;4962961;28;20571;-55
2021/05/01 07:21:29;;;;;;;12.57;11.27;;;9.40;99.90;;;;;;4959837;28;20246;-53
2021/05/01 07:23:56;;;;;;;12.60;11.30;;;9.50;99.90;;;;;;4959617;28;20254;-53
2021/05/01 07:26:24;;;;;;;12.70;11.43;;;9.50;99.90;;;;;;4949518;28;20243;-53
2021/05/01 07:28:54;;;;;;;12.00;10.70;;;9.50;99.90;;;;;;4962076;28;20240;-56
2021/05/01 07:31:25;;;;;;;11.97;10.87;;;9.60;99.90;;;;;;4958767;28;20337;-54
2021/05/01 07:33:58;;;;;;;12.47;11.10;;;9.70;99.90;;;;;;4959129;28;21629;-55
2021/05/01 07:36:33;;;;;;;12.50;11.13;;;9.90;99.90;;;;;;4952844;28;20292;-56
2021/05/01 07:39:02;;;;;;;12.13;11.00;;;9.90;99.90;;;;;;4960121;28;20277;-56
2021/05/01 07:41:30;;;;;;;11.93;10.73;;;9.80;99.90;;;;;;4976650;28;20246;-54
2021/05/01 07:44:00;;;;;;;12.30;11.00;;;10.00;99.90;;;;;;4961271;28;20250;-57
2021/05/01 07:46:29;;;;;;;12.47;11.07;;;10.20;99.90;;;;;;4955840;28;20240;-53
2021/05/01 07:48:57;;;;;;;12.70;11.50;;;10.40;99.90;;;;;;4957794;28;20250;-54
2021/05/01 07:51:24;;;;;;;11.87;10.70;;;10.40;99.90;;;;;;4955965;28;20244;-53
2021/05/01 07:54:04;;;;;;;12.30;11.00;;;10.40;99.90;;;;;;4955748;28;20232;-54
2021/05/01 07:56:32;;;;;;;12.07;10.73;;;10.30;99.90;;;;;;4950376;28;20246;-54
2021/05/01 07:59:00;;;;;;;12.37;10.90;;;10.30;99.90;;;;;;4959132;28;20317;-55
2021/05/01 08:01:28;;;;;;;12.53;11.23;;;10.20;99.90;;;;;;4958713;28;20269;-52
2021/05/01 08:03:56;;;;;;;11.33;10.13;;;10.20;99.90;;;;;;4957812;28;20313;-56
2021/05/01 08:06:24;;;;;;;12.20;10.90;;;10.20;99.90;;;;;;4952126;28;20242;-54
2021/05/01 08:08:53;;;;;;;12.20;10.50;;;10.20;99.90;;;;;;4959737;28;20247;-55
2021/05/01 08:11:22;;;;;;;13.23;10.90;;;10.10;99.90;;;;;;4956486;28;20738;-56
2021/05/01 08:13:50;;;;;;;11.60;10.43;;;10.10;99.90;;;;;;4954461;28;20252;-53
2021/05/01 08:16:17;;;;;;;11.83;10.60;;;10.10;99.90;;;;;;4952493;28;20974;-55
2021/05/01 08:18:45;;;;;;;11.90;10.57;;;10.20;99.90;;;;;;4959843;28;20254;-54
2021/05/01 08:21:13;;;;;;;12.13;10.90;;;10.20;99.90;;;;;;4957315;28;20730;-55
2021/05/01 08:23:40;;;;;;;12.13;11.00;;;10.30;99.90;;;;;;4956030;28;20245;-54
2021/05/01 08:26:08;;;;;;;12.50;11.30;;;10.30;99.90;;;;;;4956279;28;20249;-53
2021/05/01 08:28:36;;;;;;;12.77;11.47;;;10.50;99.90;;;;;;4957626;28;20251;-57
2021/05/01 08:31:04;;;;;;;11.77;10.57;;;10.70;99.90;;;;;;4956755;28;20240;-55
2021/05/01 08:33:32;;;;;;;12.30;11.10;;;10.90;99.90;;;;;;4957955;28;20819;-55
2021/05/01 08:36:00;;;;;;;11.40;10.30;;;11.10;99.90;;;;;;4954405;28;20326;-57
2021/05/01 08:38:28;;;;;;;12.43;10.93;;;11.10;99.90;;;;;;4957714;28;20715;-57
2021/05/01 08:40:59;;;;;;;11.67;10.43;;;11.40;99.90;;;;;;4957122;28;20241;-53
2021/05/01 08:43:26;;;;;;;11.87;10.70;;;11.60;99.90;;;;;;4960443;28;20232;-56
2021/05/01 08:45:54;;;;;;;11.53;10.43;;;11.80;99.90;;;;;;4954429;28;20251;-55
2021/05/01 08:48:24;;;;;;;12.27;11.07;;;11.70;99.90;;;;;;4959692;28;20340;-58
2021/05/01 08:50:55;;;;;;;11.07;9.97;;;11.80;99.90;;;;;;4954675;28;20259;-55
2021/05/01 08:53:23;;;;;;;10.53;9.53;;;12.30;99.90;;;;;;4958427;28;20371;-55
2021/05/01 08:55:50;;;;;;;12.13;10.87;;;12.80;99.90;;;;;;4954854;28;20886;-57
2021/05/01 08:58:17;;;;;;;12.20;10.93;;;13.10;99.90;;;;;;4956509;28;20851;-58
2021/05/01 09:00:48;;;;;;;11.03;10.03;;;13.10;99.90;;;;;;4958654;28;20707;-56
2021/05/01 09:03:20;;;;;;;12.33;11.20;;;13.30;99.90;;;;;;4957660;28;20334;-50
2021/05/01 09:05:48;;;;;;;11.60;10.50;;;13.40;99.90;;;;;;4955821;28;20246;-51
2021/05/01 09:08:16;;;;;;;12.37;11.17;;;13.40;99.90;;;;;;4954513;28;20682;-55
2021/05/01 09:10:48;;;;;;;11.30;10.20;;;13.50;99.90;;;;;;4958465;28;20249;-54
2021/05/01 09:13:19;;;;;;;12.33;11.13;;;13.40;99.90;;;;;;4957707;28;20260;-53
2021/05/01 09:16:04;;;;;;;12.67;11.47;;;13.20;99.90;;;;;;4955493;28;20238;-53
2021/05/01 09:18:48;;;;;;;12.07;10.70;;;13.20;99.90;;;;;;4955811;28;20256;-51
2021/05/01 09:21:18;;;;;;;12.10;10.90;;;13.10;99.90;;;;;;4954591;28;20246;-51
2021/05/01 09:23:46;;;;;;;14.07;12.77;;;13.20;99.90;;;;;;4958059;28;20733;-52
2021/05/01 09:26:14;;;;;;;12.47;11.27;;;13.40;99.90;;;;;;4953275;28;20253;-55
2021/05/01 09:28:48;;;;;;;13.23;11.93;;;13.60;99.90;;;;;;4955626;28;20249;-53
2021/05/01 09:31:18;;;;;;;12.67;11.47;;;13.90;99.90;;;;;;4957544;28;20240;-55
2021/05/01 09:33:50;;;;;;;13.60;12.20;;;14.40;99.90;;;;;;4956834;28;21370;-53
2021/05/01 09:36:19;;;;;;;12.10;11.00;;;15.10;99.90;;;;;;4949082;28;20718;-54
2021/05/01 09:38:49;;;;;;;12.40;11.30;;;15.60;99.90;;;;;;4957481;28;20510;-54
2021/05/01 09:41:19;;;;;;;12.03;10.93;;;16.20;99.90;;;;;;4955094;28;20819;-52
2021/05/01 09:44:02;;;;;;;12.07;10.87;;;16.60;99.90;;;;;;4954015;28;20371;-54
2021/05/01 09:46:31;;;;;;;11.97;10.87;;;16.70;99.90;;;;;;4959121;28;20250;-54
2021/05/01 09:49:07;;;;;;;11.77;10.67;;;16.60;99.90;;;;;;4958620;28;20605;-51
2021/05/01 09:51:52;;;;;;;11.30;10.23;;;16.60;99.90;;;;;;4960362;28;21107;-52
2021/05/01 09:54:25;;;;;;;11.87;10.77;;;16.50;99.90;;;;;;4954936;28;20255;-53
2021/05/01 09:56:56;;;;;;;11.93;10.73;;;16.70;99.90;;;;;;4959305;28;20778;-53
2021/05/01 09:59:35;;;;;;;12.17;11.07;;;16.80;99.90;;;;;;4956976;28;20250;-55
2021/05/01 10:02:02;;;;;;;11.20;10.20;;;16.90;99.90;;;;;;4961227;28;20558;-52
2021/05/01 10:04:31;;;;;;;12.00;10.87;;;17.20;99.90;;;;;;4955934;28;20246;-53
2021/05/01 10:07:03;;;;;;;11.73;10.63;;;17.40;99.90;;;;;;4970492;28;20304;-52
2021/05/01 10:09:34;;;;;;;12.07;10.77;;;17.60;99.90;;;;;;4979454;28;20248;-52
2021/05/01 10:12:06;;;;;;;11.90;10.90;;;17.40;99.90;;;;;;4981463;28;20252;-52
2021/05/01 10:14:42;;;;;;;11.63;10.53;;;17.40;99.90;;;;;;4976786;28;20888;-54
2021/05/01 10:17:13;;;;;;;12.47;11.37;;;17.40;99.90;;;;;;4980101;28;20257;-51
2021/05/01 10:19:53;;;;;;;11.40;10.40;;;17.40;99.90;;;;;;4981651;28;20432;-52
2021/05/01 10:22:32;;;;;;;12.63;11.43;;;17.10;99.90;;;;;;4980111;28;20245;-53
2021/05/01 10:25:02;;;;;;;11.10;10.07;;;16.80;99.90;;;;;;4978823;28;20253;-52
2021/05/01 10:27:41;;;;;;;11.47;10.37;;;17.10;99.90;;;;;;4994982;28;20601;-50
2021/05/01 10:30:16;;;;;;;11.40;10.30;;;17.70;99.90;;;;;;4983287;28;20714;-52
2021/05/01 10:32:50;;;;;;;12.37;11.07;;;18.00;99.90;;;;;;4996853;28;20248;-50
2021/05/01 10:35:19;;;;;;;12.37;11.17;;;17.80;99.90;;;;;;4976905;28;20248;-53
2021/05/01 10:38:06;;;;;;;11.63;10.43;;;17.30;99.90;;;;;;4979016;28;20709;-53
2021/05/01 10:40:43;;;;;;;11.77;10.70;;;16.70;99.90;;;;;;4980264;28;20321;-54
2021/05/01 10:43:14;;;;;;;12.87;11.47;;;16.40;99.90;;;;;;4985264;28;20253;-51
2021/05/01 10:45:49;;;;;;;12.73;11.53;;;16.50;99.90;;;;;;4977571;28;20293;-54
2021/05/01 10:48:17;;;;;;;11.67;10.60;;;17.00;99.90;;;;;;4984759;28;20233;-52
2021/05/01 10:50:59;;;;;;;12.50;11.13;;;17.80;99.90;;;;;;4997807;28;20624;-50
2021/05/01 10:53:27;;;;;;;11.60;10.60;;;18.30;99.90;;;;;;4986371;28;20292;-52
2021/05/01 10:55:55;;;;;;;14.17;12.07;;;18.60;99.90;;;;;;4983756;28;20251;-51
2021/05/01 10:58:43;;;;;;;11.17;10.20;;;18.90;99.90;;;;;;4979710;28;23174;-50
2021/05/01 11:01:19;;;;;;;11.67;10.60;;;19.40;99.90;;;;;;4981960;28;20267;-52
2021/05/01 11:03:48;;;;;;;11.93;10.83;;;18.90;99.90;;;;;;4986589;28;20228;-50
2021/05/01 11:06:25;;;;;;;12.17;11.03;;;18.20;99.90;;;;;;4983550;28;20591;-50
2021/05/01 11:09:05;;;;;;;12.07;10.97;;;17.80;99.90;;;;;;4980594;28;20256;-50
2021/05/01 11:11:36;;;;;;;12.33;11.07;;;17.50;99.90;;;;;;4985530;28;20721;-51
2021/05/01 11:14:24;;;;;;;12.10;11.10;;;17.20;99.90;;;;;;4980685;28;20242;-53
2021/05/01 11:16:54;;;;;;;12.73;11.63;;;16.90;99.90;;;;;;4983576;28;20247;-51
2021/05/01 11:19:22;;;;;;;12.97;11.67;;;16.70;99.90;;;;;;4984760;28;20269;-49
2021/05/01 11:21:52;;;;;;;13.93;12.47;;;16.40;99.90;;;;;;4990300;28;20238;-51
2021/05/01 11:24:19;;;;;;;12.03;10.93;;;16.20;99.90;;;;;;4993328;28;20253;-55
2021/05/01 11:26:48;;;;;;;12.10;11.00;;;16.00;99.90;;;;;;4987668;28;20237;-51
2021/05/01 11:29:17;;;;;;;12.60;11.40;;;15.90;99.90;;;;;;5008458;28;20237;-50
2021/05/01 11:31:46;;;;;;;12.50;11.30;;;15.60;99.90;;;;;;5008181;28;20801;-50
2021/05/01 11:34:15;;;;;;;12.00;10.80;;;15.20;99.90;;;;;;4992491;28;20269;-49
2021/05/01 11:36:50;;;;;;;12.60;11.40;;;15.10;99.90;;;;;;4988837;28;20238;-49
2021/05/01 11:39:18;;;;;;;11.93;10.77;;;15.00;99.90;;;;;;4984178;28;20264;-50
2021/05/01 11:41:47;;;;;;;12.23;11.10;;;15.00;99.90;;;;;;4977741;28;20230;-50
2021/05/01 11:44:17;;;;;;;11.43;10.33;;;15.00;99.90;;;;;;4969224;28;20247;-50
2021/05/01 11:46:49;;;;;;;11.57;10.47;;;14.90;99.90;;;;;;4974524;28;20651;-51
2021/05/01 11:49:22;;;;;;;12.43;11.33;;;14.90;99.90;;;;;;4984332;28;20242;-52
2021/05/01 11:52:24;;;;;;;12.60;11.40;;;14.70;99.90;;;;;;4987745;28;20256;-51
2021/05/01 11:55:14;;;;;;;12.27;11.00;;;14.60;99.90;;;;;;4971564;28;20238;-50
2021/05/01 11:57:46;;;;;;;12.00;10.90;;;14.60;99.90;;;;;;4976726;28;20239;-50
2021/05/01 12:00:28;;;;;;;12.70;11.40;;;14.50;99.90;;;;;;4976054;28;20239;-49
2021/05/01 12:02:57;;;;;;;13.07;11.87;;;14.40;99.90;;;;;;4975926;28;20231;-50
2021/05/01 12:05:26;;;;;;;16.57;14.87;;;13.90;99.90;;;;;;4977052;28;20245;-50
2021/05/01 12:08:10;;;;;;;17.80;15.93;;;13.50;99.90;;;;;;4976735;28;20242;-50
2021/05/01 12:10:43;;;;;;;17.70;15.80;;;13.30;99.90;;;;;;4976647;28;20258;-50
2021/05/01 12:13:16;;;;;;;19.20;15.37;;;13.00;99.90;;;;;;4976604;28;20337;-50
2021/05/01 12:15:48;;;;;;;17.27;15.37;;;12.80;99.90;;;;;;4976688;28;20249;-51
2021/05/01 12:18:17;;;;;;;17.23;15.43;;;12.60;99.90;;;;;;4975761;28;20235;-50
2021/05/01 12:20:53;;;;;;;17.93;15.60;;;12.50;99.90;;;;;;4975218;28;20234;-51
2021/05/01 12:23:40;;;;;;;19.73;16.33;;;12.40;99.90;;;;;;4976363;28;20751;-50
2021/05/01 12:26:09;;;;;;;20.17;16.43;;;12.30;99.90;;;;;;4976503;28;20238;-52
2021/05/01 12:28:39;;;;;;;18.53;16.37;;;12.20;99.90;;;;;;4975209;28;20626;-50
2021/05/01 12:31:08;;;;;;;18.07;15.60;;;12.10;99.90;;;;;;4976428;28;20234;-50
2021/05/01 12:33:53;;;;;;;17.70;15.70;;;12.10;99.90;;;;;;4967805;28;20305;-50
2021/05/01 12:36:28;;;;;;;19.23;17.10;;;12.10;99.90;;;;;;4968816;28;20661;-51
2021/05/01 12:38:58;;;;;;;18.23;15.90;;;12.10;99.90;;;;;;4969155;28;20748;-52
2021/05/01 12:41:40;;;;;;;18.13;16.13;;;12.00;99.90;;;;;;4970965;28;20767;-51
2021/05/01 12:44:09;;;;;;;18.33;16.40;;;11.90;99.90;;;;;;4991016;28;20661;-50
2021/05/01 12:46:45;;;;;;;18.63;15.63;;;11.80;99.90;;;;;;4976623;28;20260;-50